Terminal Aerodrome Forecast
Issued by NWS Paducah, KY

Home | Current Version | Previous Version | Text Only | Print | Product List | Glossary On
Versions: 1 2 3 4 5 6 7 8 9 10 11 12
000
FTUS43 KPAH 312320
TAFPAH
TAF
KPAH 312320Z 0100/0124 33004KT P6SM FEW050
     FM010100 00000KT P6SM SKC
     FM011000 00000KT P6SM MIFG SKC
     FM011300 VRB03KT P6SM FEW050=

USA.gov is the U.S. government's official web portal to all federal, state and local government web resources and services.